BAW528 EGPH-EIDW
Flight info
| Callsign | BAW528 |
|---|---|
| Flight time | 0h 39m |
| Altitude | 22000 |
| Route | GOSAM P600 TRN/N0405F240 DCT BLACA P620 NIMAT NIMAT4L |
| Aircraft | A320/M-SDE3FGHIRWY/LB1 |
Departure
| Time | 2026-04-26 10:28 |
|---|---|
| Airport | Edinburgh Airport (EGPH) |
Arrival
| Time | 2026-04-26 11:07 |
|---|---|
| Airport | Dublin Airport (EIDW) |
| Time | Latitude | Longitude | Altitude | Speed | Heading |
|---|---|---|---|---|---|
| 2026-04-26 10:02 | 55.94659 | -3.36615 | 101 ft | 0 kts | 89° |
| 2026-04-26 10:13 | 55.94659 | -3.36636 | 101 ft | 3 kts | 89° |
| 2026-04-26 10:13 | 55.94659 | -3.36669 | 102 ft | 3 kts | 88° |
| 2026-04-26 10:13 | 55.94656 | -3.36703 | 102 ft | 4 kts | 64° |
| 2026-04-26 10:14 | 55.94645 | -3.36729 | 102 ft | 5 kts | 26° |
| 2026-04-26 10:14 | 55.94631 | -3.36737 | 103 ft | 3 kts | 360° |
| 2026-04-26 10:14 | 55.94630 | -3.36737 | 103 ft | 2 kts | 359° |
| 2026-04-26 10:17 | 55.94667 | -3.36738 | 103 ft | 13 kts | 359° |
| 2026-04-26 10:17 | 55.94735 | -3.36739 | 104 ft | 7 kts | 358° |
| 2026-04-26 10:17 | 55.94737 | -3.36740 | 104 ft | 0 kts | 356° |
| 2026-04-26 10:18 | 55.94739 | -3.36740 | 104 ft | 0 kts | 354° |
| 2026-04-26 10:18 | 55.94740 | -3.36741 | 104 ft | 1 kts | 354° |
| 2026-04-26 10:19 | 55.94748 | -3.36744 | 104 ft | 3 kts | 347° |
| 2026-04-26 10:19 | 55.94750 | -3.36745 | 104 ft | 0 kts | 343° |
| 2026-04-26 10:19 | 55.94756 | -3.36751 | 105 ft | 3 kts | 332° |
| 2026-04-26 10:19 | 55.94811 | -3.36780 | 106 ft | 10 kts | 353° |
| 2026-04-26 10:20 | 55.94858 | -3.36783 | 107 ft | 9 kts | 0° |
| 2026-04-26 10:20 | 55.94926 | -3.36823 | 108 ft | 8 kts | 353° |
| 2026-04-26 10:20 | 55.94961 | -3.36794 | 111 ft | 6 kts | 48° |
| 2026-04-26 10:20 | 55.94988 | -3.36721 | 112 ft | 8 kts | 58° |
| 2026-04-26 10:21 | 55.95024 | -3.36617 | 112 ft | 11 kts | 59° |
| 2026-04-26 10:21 | 55.95065 | -3.36493 | 112 ft | 13 kts | 58° |
| 2026-04-26 10:21 | 55.95116 | -3.36344 | 110 ft | 15 kts | 59° |
| 2026-04-26 10:21 | 55.95175 | -3.36164 | 109 ft | 18 kts | 58° |
| 2026-04-26 10:22 | 55.95248 | -3.35944 | 105 ft | 19 kts | 56° |
| 2026-04-26 10:22 | 55.95314 | -3.35752 | 107 ft | 19 kts | 59° |
| 2026-04-26 10:22 | 55.95384 | -3.35547 | 110 ft | 19 kts | 59° |
| 2026-04-26 10:22 | 55.95457 | -3.35408 | 109 ft | 16 kts | 5° |
| 2026-04-26 10:23 | 55.95501 | -3.35443 | 107 ft | 0 kts | 329° |
| 2026-04-26 10:25 | 55.95537 | -3.35483 | 108 ft | 13 kts | 324° |
| 2026-04-26 10:26 | 55.95547 | -3.35640 | 109 ft | 16 kts | 237° |
| 2026-04-26 10:26 | 55.95503 | -3.35765 | 109 ft | 0 kts | 238° |
| 2026-04-26 10:27 | 55.95500 | -3.35774 | 110 ft | 5 kts | 238° |
| 2026-04-26 10:27 | 55.95358 | -3.36195 | 104 ft | 76 kts | 240° |
| 2026-04-26 10:27 | 55.94981 | -3.37311 | 112 ft | 131 kts | 239° |
| 2026-04-26 10:28 | 55.94482 | -3.38822 | 419 ft | 142 kts | 241° |
| 2026-04-26 10:28 | 55.94003 | -3.40331 | 954 ft | 140 kts | 239° |
| 2026-04-26 10:28 | 55.93467 | -3.41869 | 1347 ft | 152 kts | 238° |
| 2026-04-26 10:28 | 55.92879 | -3.43542 | 1676 ft | 166 kts | 238° |
| 2026-04-26 10:29 | 55.92241 | -3.45357 | 1943 ft | 180 kts | 238° |
| 2026-04-26 10:29 | 55.91539 | -3.47353 | 2279 ft | 201 kts | 238° |
| 2026-04-26 10:29 | 55.90764 | -3.49605 | 2747 ft | 223 kts | 243° |
| 2026-04-26 10:29 | 55.90295 | -3.52285 | 3352 ft | 238 kts | 260° |
| 2026-04-26 10:30 | 55.89999 | -3.55300 | 3985 ft | 256 kts | 260° |
| 2026-04-26 10:30 | 55.89683 | -3.58501 | 4823 ft | 265 kts | 260° |
| 2026-04-26 10:30 | 55.89360 | -3.61769 | 5570 ft | 270 kts | 260° |
| 2026-04-26 10:30 | 55.89031 | -3.65074 | 5699 ft | 270 kts | 260° |
| 2026-04-26 10:31 | 55.88703 | -3.68367 | 5715 ft | 270 kts | 260° |
| 2026-04-26 10:31 | 55.88374 | -3.71662 | 5716 ft | 270 kts | 260° |
| 2026-04-26 10:31 | 55.88046 | -3.74924 | 5719 ft | 270 kts | 260° |
| 2026-04-26 10:31 | 55.87712 | -3.78216 | 5718 ft | 270 kts | 259° |
| 2026-04-26 10:32 | 55.87379 | -3.81516 | 5719 ft | 270 kts | 260° |
| 2026-04-26 10:32 | 55.87050 | -3.84821 | 5716 ft | 271 kts | 260° |
| 2026-04-26 10:32 | 55.86724 | -3.88119 | 5743 ft | 270 kts | 260° |
| 2026-04-26 10:32 | 55.86398 | -3.91413 | 6266 ft | 272 kts | 260° |
| 2026-04-26 10:33 | 55.86065 | -3.94751 | 7185 ft | 275 kts | 260° |
| 2026-04-26 10:33 | 55.85725 | -3.98125 | 8093 ft | 278 kts | 260° |
| 2026-04-26 10:33 | 55.85379 | -4.01537 | 8963 ft | 282 kts | 260° |
| 2026-04-26 10:33 | 55.85032 | -4.04952 | 9777 ft | 285 kts | 260° |
| 2026-04-26 10:34 | 55.84671 | -4.08471 | 10456 ft | 296 kts | 258° |
| 2026-04-26 10:34 | 55.83969 | -4.12009 | 10897 ft | 312 kts | 242° |
| 2026-04-26 10:34 | 55.82659 | -4.15191 | 11309 ft | 328 kts | 225° |
| 2026-04-26 10:34 | 55.80810 | -4.17718 | 11731 ft | 342 kts | 214° |
| 2026-04-26 10:35 | 55.78819 | -4.20109 | 12361 ft | 348 kts | 214° |
| 2026-04-26 10:35 | 55.76810 | -4.22556 | 13068 ft | 351 kts | 215° |
| 2026-04-26 10:35 | 55.74792 | -4.25053 | 13767 ft | 355 kts | 215° |
| 2026-04-26 10:35 | 55.72785 | -4.27556 | 14439 ft | 358 kts | 215° |
| 2026-04-26 10:36 | 55.70735 | -4.30118 | 15077 ft | 362 kts | 215° |
| 2026-04-26 10:36 | 55.68666 | -4.32700 | 15695 ft | 366 kts | 215° |
| 2026-04-26 10:36 | 55.66576 | -4.35303 | 16297 ft | 369 kts | 215° |
| 2026-04-26 10:36 | 55.64462 | -4.37928 | 16905 ft | 372 kts | 215° |
| 2026-04-26 10:37 | 55.62330 | -4.40563 | 17503 ft | 375 kts | 215° |
| 2026-04-26 10:37 | 55.60178 | -4.43209 | 18111 ft | 379 kts | 215° |
| 2026-04-26 10:37 | 55.58003 | -4.45878 | 18716 ft | 382 kts | 215° |
| 2026-04-26 10:37 | 55.55815 | -4.48563 | 19313 ft | 385 kts | 215° |
| 2026-04-26 10:38 | 55.53598 | -4.51283 | 19909 ft | 389 kts | 215° |
| 2026-04-26 10:38 | 55.51358 | -4.54026 | 20499 ft | 392 kts | 215° |
| 2026-04-26 10:38 | 55.49100 | -4.56785 | 21064 ft | 395 kts | 215° |
| 2026-04-26 10:38 | 55.46827 | -4.59559 | 21608 ft | 399 kts | 215° |
| 2026-04-26 10:39 | 55.44566 | -4.62318 | 22106 ft | 402 kts | 215° |
| 2026-04-26 10:39 | 55.42260 | -4.65131 | 22601 ft | 405 kts | 215° |
| 2026-04-26 10:39 | 55.39933 | -4.67964 | 23074 ft | 408 kts | 215° |
| 2026-04-26 10:39 | 55.37585 | -4.70817 | 23538 ft | 411 kts | 215° |
| 2026-04-26 10:40 | 55.35221 | -4.73686 | 23995 ft | 414 kts | 215° |
| 2026-04-26 10:40 | 55.32844 | -4.76572 | 24435 ft | 417 kts | 215° |
| 2026-04-26 10:40 | 55.30371 | -4.79264 | 24865 ft | 420 kts | 207° |
| 2026-04-26 10:40 | 55.27752 | -4.81559 | 25269 ft | 422 kts | 206° |
| 2026-04-26 10:41 | 55.25110 | -4.83865 | 25674 ft | 425 kts | 207° |
| 2026-04-26 10:41 | 55.22459 | -4.86183 | 25946 ft | 426 kts | 207° |
| 2026-04-26 10:41 | 55.19794 | -4.88517 | 26007 ft | 429 kts | 207° |
| 2026-04-26 10:41 | 55.17155 | -4.90831 | 26010 ft | 429 kts | 207° |
| 2026-04-26 10:42 | 55.14480 | -4.93179 | 26009 ft | 429 kts | 207° |
| 2026-04-26 10:42 | 55.11791 | -4.95539 | 26010 ft | 429 kts | 207° |
| 2026-04-26 10:42 | 55.09122 | -4.97874 | 26009 ft | 429 kts | 207° |
| 2026-04-26 10:42 | 55.06488 | -5.00173 | 26009 ft | 429 kts | 207° |
| 2026-04-26 10:43 | 55.03809 | -5.02502 | 26009 ft | 430 kts | 207° |
| 2026-04-26 10:43 | 55.01131 | -5.04824 | 26009 ft | 429 kts | 206° |
| 2026-04-26 10:43 | 54.98460 | -5.07133 | 26009 ft | 429 kts | 206° |
| 2026-04-26 10:43 | 54.95779 | -5.09447 | 26010 ft | 429 kts | 206° |
| 2026-04-26 10:44 | 54.93105 | -5.11755 | 26010 ft | 429 kts | 206° |
| 2026-04-26 10:44 | 54.90430 | -5.14059 | 26011 ft | 429 kts | 206° |
| 2026-04-26 10:44 | 54.87661 | -5.15997 | 26011 ft | 429 kts | 197° |
| 2026-04-26 10:44 | 54.84792 | -5.17195 | 26011 ft | 429 kts | 192° |
| 2026-04-26 10:45 | 54.81872 | -5.18262 | 26011 ft | 429 kts | 192° |
| 2026-04-26 10:45 | 54.78952 | -5.19336 | 26012 ft | 429 kts | 192° |
| 2026-04-26 10:45 | 54.76023 | -5.20417 | 26012 ft | 429 kts | 192° |
| 2026-04-26 10:45 | 54.73119 | -5.21487 | 26015 ft | 429 kts | 192° |
| 2026-04-26 10:46 | 54.70179 | -5.22568 | 26013 ft | 429 kts | 192° |
| 2026-04-26 10:46 | 54.67254 | -5.23644 | 26016 ft | 429 kts | 192° |
| 2026-04-26 10:46 | 54.64334 | -5.24717 | 26018 ft | 429 kts | 192° |
| 2026-04-26 10:46 | 54.61411 | -5.25783 | 26017 ft | 429 kts | 192° |
| 2026-04-26 10:47 | 54.58528 | -5.26831 | 26016 ft | 429 kts | 192° |
| 2026-04-26 10:47 | 54.55607 | -5.27892 | 26018 ft | 429 kts | 192° |
| 2026-04-26 10:47 | 54.52683 | -5.28957 | 26018 ft | 429 kts | 192° |
| 2026-04-26 10:47 | 54.49787 | -5.30105 | 26011 ft | 426 kts | 197° |
| 2026-04-26 10:48 | 54.47027 | -5.31947 | 26010 ft | 426 kts | 206° |
| 2026-04-26 10:48 | 54.44371 | -5.34200 | 26010 ft | 426 kts | 206° |
| 2026-04-26 10:48 | 54.41709 | -5.36458 | 26008 ft | 426 kts | 206° |
| 2026-04-26 10:48 | 54.39049 | -5.38712 | 26009 ft | 426 kts | 206° |
| 2026-04-26 10:49 | 54.36383 | -5.40967 | 26008 ft | 426 kts | 206° |
| 2026-04-26 10:49 | 54.33726 | -5.43205 | 26009 ft | 426 kts | 206° |
| 2026-04-26 10:49 | 54.31077 | -5.45429 | 25516 ft | 423 kts | 206° |
| 2026-04-26 10:49 | 54.28409 | -5.47661 | 24534 ft | 428 kts | 206° |
| 2026-04-26 10:50 | 54.25732 | -5.49903 | 23734 ft | 428 kts | 206° |
| 2026-04-26 10:50 | 54.23967 | -5.51380 | 23262 ft | 425 kts | 206° |
| 2026-04-26 10:50 | 54.20434 | -5.54337 | 22368 ft | 420 kts | 206° |
| 2026-04-26 10:50 | 54.17853 | -5.56490 | 21726 ft | 416 kts | 206° |
| 2026-04-26 10:51 | 54.15263 | -5.58651 | 21096 ft | 412 kts | 206° |
| 2026-04-26 10:51 | 54.10154 | -5.62914 | 19898 ft | 405 kts | 206° |
| 2026-04-26 10:51 | 54.07639 | -5.65008 | 19419 ft | 399 kts | 206° |
| 2026-04-26 10:52 | 54.05148 | -5.67074 | 18827 ft | 398 kts | 206° |
| 2026-04-26 10:52 | 54.02663 | -5.69127 | 18261 ft | 395 kts | 206° |
| 2026-04-26 10:52 | 54.00196 | -5.71161 | 17705 ft | 392 kts | 206° |
| 2026-04-26 10:52 | 53.97735 | -5.73095 | 17141 ft | 388 kts | 200° |
| 2026-04-26 10:53 | 53.95128 | -5.74231 | 16565 ft | 385 kts | 188° |
| 2026-04-26 10:53 | 53.92459 | -5.74513 | 15975 ft | 382 kts | 182° |
| 2026-04-26 10:53 | 53.89815 | -5.74689 | 15375 ft | 379 kts | 182° |
| 2026-04-26 10:54 | 53.84622 | -5.75052 | 14168 ft | 372 kts | 182° |
| 2026-04-26 10:54 | 53.82010 | -5.75241 | 13550 ft | 369 kts | 182° |
| 2026-04-26 10:54 | 53.79466 | -5.75426 | 13131 ft | 360 kts | 182° |
| 2026-04-26 10:54 | 53.77043 | -5.75599 | 13006 ft | 344 kts | 182° |
| 2026-04-26 10:55 | 53.74707 | -5.75760 | 12879 ft | 325 kts | 182° |
| 2026-04-26 10:55 | 53.72514 | -5.75912 | 12564 ft | 307 kts | 182° |
| 2026-04-26 10:55 | 53.70387 | -5.76059 | 12055 ft | 305 kts | 182° |
| 2026-04-26 10:55 | 53.68987 | -5.76157 | 11834 ft | 303 kts | 182° |
| 2026-04-26 10:56 | 53.66194 | -5.76353 | 11490 ft | 295 kts | 182° |
| 2026-04-26 10:56 | 53.64185 | -5.76174 | 11368 ft | 284 kts | 166° |
| 2026-04-26 10:56 | 53.62419 | -5.74859 | 11242 ft | 274 kts | 144° |
| 2026-04-26 10:56 | 53.61085 | -5.72636 | 10950 ft | 271 kts | 127° |
| 2026-04-26 10:57 | 53.59939 | -5.70059 | 10233 ft | 278 kts | 127° |
| 2026-04-26 10:57 | 53.58770 | -5.67393 | 9327 ft | 287 kts | 127° |
| 2026-04-26 10:57 | 53.57548 | -5.64674 | 8445 ft | 293 kts | 133° |
| 2026-04-26 10:57 | 53.56031 | -5.62589 | 8131 ft | 276 kts | 149° |
| 2026-04-26 10:58 | 53.54424 | -5.60949 | 8003 ft | 259 kts | 149° |
| 2026-04-26 10:58 | 53.52883 | -5.59503 | 7871 ft | 249 kts | 160° |
| 2026-04-26 10:58 | 53.51244 | -5.59035 | 7746 ft | 238 kts | 184° |
| 2026-04-26 10:58 | 53.49685 | -5.59678 | 7614 ft | 226 kts | 207° |
| 2026-04-26 10:59 | 53.48447 | -5.61220 | 7335 ft | 221 kts | 230° |
| 2026-04-26 10:59 | 53.47662 | -5.63406 | 6988 ft | 219 kts | 250° |
| 2026-04-26 10:59 | 53.47304 | -5.64989 | 6761 ft | 219 kts | 249° |
| 2026-04-26 10:59 | 53.47160 | -5.65612 | 6670 ft | 220 kts | 249° |
| 2026-04-26 11:00 | 53.46587 | -5.68064 | 6336 ft | 219 kts | 249° |
| 2026-04-26 11:00 | 53.46030 | -5.70433 | 6014 ft | 218 kts | 249° |
| 2026-04-26 11:00 | 53.45472 | -5.72793 | 5696 ft | 217 kts | 248° |
| 2026-04-26 11:00 | 53.44917 | -5.75139 | 5377 ft | 216 kts | 249° |
| 2026-04-26 11:01 | 53.44366 | -5.77478 | 5053 ft | 215 kts | 249° |
| 2026-04-26 11:01 | 53.43818 | -5.79802 | 4757 ft | 214 kts | 249° |
| 2026-04-26 11:01 | 53.43270 | -5.82110 | 4438 ft | 213 kts | 248° |
| 2026-04-26 11:01 | 53.42721 | -5.84413 | 4131 ft | 212 kts | 248° |
| 2026-04-26 11:02 | 53.42183 | -5.86674 | 3822 ft | 211 kts | 248° |
| 2026-04-26 11:02 | 53.41639 | -5.88952 | 3520 ft | 210 kts | 248° |
| 2026-04-26 11:02 | 53.41099 | -5.91216 | 3204 ft | 209 kts | 248° |
| 2026-04-26 11:02 | 53.40568 | -5.93440 | 3056 ft | 200 kts | 248° |
| 2026-04-26 11:03 | 53.40224 | -5.95600 | 2921 ft | 189 kts | 274° |
| 2026-04-26 11:03 | 53.40508 | -5.97713 | 2782 ft | 186 kts | 281° |
| 2026-04-26 11:03 | 53.40632 | -5.99868 | 2737 ft | 185 kts | 274° |
| 2026-04-26 11:03 | 53.40736 | -6.02023 | 2733 ft | 186 kts | 275° |
| 2026-04-26 11:04 | 53.40853 | -6.04180 | 2601 ft | 185 kts | 275° |
| 2026-04-26 11:04 | 53.40973 | -6.06324 | 2396 ft | 184 kts | 275° |
| 2026-04-26 11:04 | 53.41053 | -6.07738 | 2240 ft | 184 kts | 275° |
| 2026-04-26 11:04 | 53.41213 | -6.10563 | 1922 ft | 174 kts | 275° |
| 2026-04-26 11:05 | 53.41287 | -6.11854 | 1780 ft | 163 kts | 275° |
| 2026-04-26 11:05 | 53.41392 | -6.13731 | 1577 ft | 161 kts | 275° |
| 2026-04-26 11:05 | 53.41498 | -6.15602 | 1353 ft | 161 kts | 275° |
| 2026-04-26 11:05 | 53.41602 | -6.17469 | 1136 ft | 161 kts | 275° |
| 2026-04-26 11:06 | 53.41706 | -6.19325 | 925 ft | 156 kts | 275° |
| 2026-04-26 11:06 | 53.41801 | -6.21019 | 728 ft | 137 kts | 275° |
| 2026-04-26 11:06 | 53.41889 | -6.22592 | 557 ft | 135 kts | 275° |
| 2026-04-26 11:06 | 53.41977 | -6.24161 | 372 ft | 135 kts | 275° |
| 2026-04-26 11:07 | 53.42070 | -6.25706 | 225 ft | 133 kts | 276° |
| 2026-04-26 11:07 | 53.42113 | -6.26643 | 226 ft | 53 kts | 276° |
| 2026-04-26 11:07 | 53.42137 | -6.27002 | 229 ft | 21 kts | 292° |
| 2026-04-26 11:07 | 53.42255 | -6.27047 | 228 ft | 17 kts | 6° |
| 2026-04-26 11:08 | 53.42301 | -6.26935 | 225 ft | 15 kts | 89° |
| 2026-04-26 11:08 | 53.42290 | -6.26744 | 225 ft | 18 kts | 95° |
| 2026-04-26 11:08 | 53.42279 | -6.26552 | 225 ft | 11 kts | 91° |
| 2026-04-26 11:08 | 53.42274 | -6.26413 | 225 ft | 13 kts | 95° |
| 2026-04-26 11:09 | 53.42270 | -6.26243 | 225 ft | 16 kts | 86° |
| 2026-04-26 11:09 | 53.42279 | -6.26094 | 225 ft | 10 kts | 108° |
| 2026-04-26 11:09 | 53.42275 | -6.25964 | 225 ft | 12 kts | 69° |
| 2026-04-26 11:09 | 53.42337 | -6.25844 | 225 ft | 15 kts | 45° |
| 2026-04-26 11:10 | 53.42415 | -6.25712 | 225 ft | 17 kts | 45° |
| 2026-04-26 11:10 | 53.42505 | -6.25556 | 225 ft | 20 kts | 46° |
| 2026-04-26 11:10 | 53.42617 | -6.25371 | 220 ft | 24 kts | 46° |
| 2026-04-26 11:10 | 53.42666 | -6.25282 | 224 ft | 8 kts | 40° |
| 2026-04-26 11:11 | 53.42706 | -6.25211 | 225 ft | 9 kts | 45° |
| 2026-04-26 11:11 | 53.42758 | -6.25123 | 225 ft | 12 kts | 45° |
| 2026-04-26 11:11 | 53.42828 | -6.25028 | 225 ft | 14 kts | 38° |
| 2026-04-26 11:11 | 53.42853 | -6.24901 | 226 ft | 11 kts | 107° |
| 2026-04-26 11:12 | 53.42836 | -6.24862 | 225 ft | 0 kts | 136° |